sensor_id;sensor_type;location;lat;lon;timestamp;temperature;humidity
23540;DHT22;11947;50.810;4.394;2022-07-18T00:00:14;18.90;99.90
23540;DHT22;11947;50.810;4.394;2022-07-18T00:02:39;18.90;99.90
23540;DHT22;11947;50.810;4.394;2022-07-18T00:05:06;18.70;99.90
23540;DHT22;11947;50.810;4.394;2022-07-18T00:07:32;18.70;99.90
23540;DHT22;11947;50.810;4.394;2022-07-18T00:09:58;18.80;99.90
23540;DHT22;11947;50.810;4.394;2022-07-18T00:12:24;18.90;99.90
23540;DHT22;11947;50.810;4.394;2022-07-18T00:14:49;18.70;99.90
23540;DHT22;11947;50.810;4.394;2022-07-18T00:17:15;18.70;99.90
23540;DHT22;11947;50.810;4.394;2022-07-18T00:19:43;18.60;99.90
23540;DHT22;11947;50.810;4.394;2022-07-18T00:22:09;18.60;99.90
23540;DHT22;11947;50.810;4.394;2022-07-18T00:24:35;18.70;99.90
23540;DHT22;11947;50.810;4.394;2022-07-18T00:27:03;18.50;99.90
23540;DHT22;11947;50.810;4.394;2022-07-18T00:29:29;18.50;99.90
23540;DHT22;11947;50.810;4.394;2022-07-18T00:31:55;18.60;99.90
23540;DHT22;11947;50.810;4.394;2022-07-18T00:34:21;18.60;99.90
23540;DHT22;11947;50.810;4.394;2022-07-18T00:36:46;18.70;99.90
23540;DHT22;11947;50.810;4.394;2022-07-18T00:39:12;18.50;99.90
23540;DHT22;11947;50.810;4.394;2022-07-18T00:41:38;18.50;99.90
23540;DHT22;11947;50.810;4.394;2022-07-18T00:44:04;18.40;99.90
23540;DHT22;11947;50.810;4.394;2022-07-18T00:46:30;18.40;99.90
23540;DHT22;11947;50.810;4.394;2022-07-18T00:48:56;18.40;99.90
23540;DHT22;11947;50.810;4.394;2022-07-18T00:51:22;18.40;99.90
23540;DHT22;11947;50.810;4.394;2022-07-18T00:53:49;18.40;99.90
23540;DHT22;11947;50.810;4.394;2022-07-18T00:56:19;18.30;99.90
23540;DHT22;11947;50.810;4.394;2022-07-18T00:58:46;18.30;99.90
23540;DHT22;11947;50.810;4.394;2022-07-18T01:01:11;18.20;99.90
23540;DHT22;11947;50.810;4.394;2022-07-18T01:03:56;18.10;99.90
23540;DHT22;11947;50.810;4.394;2022-07-18T01:06:22;18.00;99.90
23540;DHT22;11947;50.810;4.394;2022-07-18T01:08:48;18.10;99.90
23540;DHT22;11947;50.810;4.394;2022-07-18T01:11:14;18.00;99.90
23540;DHT22;11947;50.810;4.394;2022-07-18T01:13:40;17.90;99.90
23540;DHT22;11947;50.810;4.394;2022-07-18T01:16:06;17.90;99.90
23540;DHT22;11947;50.810;4.394;2022-07-18T01:18:32;17.90;99.90
23540;DHT22;11947;50.810;4.394;2022-07-18T01:20:58;17.90;99.90
23540;DHT22;11947;50.810;4.394;2022-07-18T01:23:24;18.00;99.90
23540;DHT22;11947;50.810;4.394;2022-07-18T01:25:51;17.90;99.90
23540;DHT22;11947;50.810;4.394;2022-07-18T01:28:16;17.80;99.90
23540;DHT22;11947;50.810;4.394;2022-07-18T01:30:42;17.70;99.90
23540;DHT22;11947;50.810;4.394;2022-07-18T01:33:08;17.70;99.90
23540;DHT22;11947;50.810;4.394;2022-07-18T01:35:34;17.80;99.90
23540;DHT22;11947;50.810;4.394;2022-07-18T01:38:02;17.80;99.90
23540;DHT22;11947;50.810;4.394;2022-07-18T01:40:28;17.90;99.90
23540;DHT22;11947;50.810;4.394;2022-07-18T01:42:56;17.90;99.90
23540;DHT22;11947;50.810;4.394;2022-07-18T01:45:22;17.80;99.90
23540;DHT22;11947;50.810;4.394;2022-07-18T01:47:48;17.80;99.90
23540;DHT22;11947;50.810;4.394;2022-07-18T01:50:15;17.70;99.90
23540;DHT22;11947;50.810;4.394;2022-07-18T01:52:41;17.70;99.90
23540;DHT22;11947;50.810;4.394;2022-07-18T01:55:08;17.70;99.90
23540;DHT22;11947;50.810;4.394;2022-07-18T01:57:35;17.70;99.90
23540;DHT22;11947;50.810;4.394;2022-07-18T02:00:01;17.60;99.90
23540;DHT22;11947;50.810;4.394;2022-07-18T02:02:26;17.60;99.90
23540;DHT22;11947;50.810;4.394;2022-07-18T02:04:52;17.60;99.90
23540;DHT22;11947;50.810;4.394;2022-07-18T02:07:31;17.60;99.90
23540;DHT22;11947;50.810;4.394;2022-07-18T02:09:58;17.60;99.90
23540;DHT22;11947;50.810;4.394;2022-07-18T02:12:24;17.50;99.90
23540;DHT22;11947;50.810;4.394;2022-07-18T02:14:50;17.50;99.90
23540;DHT22;11947;50.810;4.394;2022-07-18T02:17:16;17.60;99.90
23540;DHT22;11947;50.810;4.394;2022-07-18T02:19:43;17.30;99.90
23540;DHT22;11947;50.810;4.394;2022-07-18T02:22:09;17.30;99.90
23540;DHT22;11947;50.810;4.394;2022-07-18T02:24:34;17.40;99.90
23540;DHT22;11947;50.810;4.394;2022-07-18T02:27:00;17.40;99.90
23540;DHT22;11947;50.810;4.394;2022-07-18T02:29:26;17.50;99.90
23540;DHT22;11947;50.810;4.394;2022-07-18T02:31:52;17.40;99.90
23540;DHT22;11947;50.810;4.394;2022-07-18T02:34:17;17.40;99.90
23540;DHT22;11947;50.810;4.394;2022-07-18T02:36:43;17.40;99.90
23540;DHT22;11947;50.810;4.394;2022-07-18T02:39:09;17.30;99.90
23540;DHT22;11947;50.810;4.394;2022-07-18T02:41:35;17.20;99.90
23540;DHT22;11947;50.810;4.394;2022-07-18T02:44:01;17.20;99.90
23540;DHT22;11947;50.810;4.394;2022-07-18T02:46:27;17.20;99.90
23540;DHT22;11947;50.810;4.394;2022-07-18T02:48:53;17.30;99.90
23540;DHT22;11947;50.810;4.394;2022-07-18T02:51:18;17.20;99.90
23540;DHT22;11947;50.810;4.394;2022-07-18T02:53:45;17.20;99.90
23540;DHT22;11947;50.810;4.394;2022-07-18T02:56:10;17.30;99.90
23540;DHT22;11947;50.810;4.394;2022-07-18T02:58:36;17.20;99.90
23540;DHT22;11947;50.810;4.394;2022-07-18T03:01:02;17.10;99.90
23540;DHT22;11947;50.810;4.394;2022-07-18T03:03:28;17.10;99.90
23540;DHT22;11947;50.810;4.394;2022-07-18T03:05:53;17.20;99.90
23540;DHT22;11947;50.810;4.394;2022-07-18T03:08:19;17.00;99.90
23540;DHT22;11947;50.810;4.394;2022-07-18T03:10:44;17.00;99.90
23540;DHT22;11947;50.810;4.394;2022-07-18T03:13:10;17.10;99.90
23540;DHT22;11947;50.810;4.394;2022-07-18T03:15:36;17.10;99.90
23540;DHT22;11947;50.810;4.394;2022-07-18T03:18:02;17.10;99.90
23540;DHT22;11947;50.810;4.394;2022-07-18T03:20:28;17.00;99.90
23540;DHT22;11947;50.810;4.394;2022-07-18T03:22:54;17.00;99.90
23540;DHT22;11947;50.810;4.394;2022-07-18T03:25:19;16.90;99.90
23540;DHT22;11947;50.810;4.394;2022-07-18T03:27:45;16.80;99.90
23540;DHT22;11947;50.810;4.394;2022-07-18T03:30:11;16.80;99.90
23540;DHT22;11947;50.810;4.394;2022-07-18T03:32:37;16.70;99.90
23540;DHT22;11947;50.810;4.394;2022-07-18T03:35:03;16.70;99.90
23540;DHT22;11947;50.810;4.394;2022-07-18T03:37:29;16.80;99.90
23540;DHT22;11947;50.810;4.394;2022-07-18T03:39:54;16.80;99.90
23540;DHT22;11947;50.810;4.394;2022-07-18T03:42:20;16.80;99.90
23540;DHT22;11947;50.810;4.394;2022-07-18T03:44:46;16.80;99.90
23540;DHT22;11947;50.810;4.394;2022-07-18T03:47:11;16.80;99.90
23540;DHT22;11947;50.810;4.394;2022-07-18T03:49:37;16.70;99.90
23540;DHT22;11947;50.810;4.394;2022-07-18T03:52:03;16.70;99.90
23540;DHT22;11947;50.810;4.394;2022-07-18T03:54:29;16.80;99.90
23540;DHT22;11947;50.810;4.394;2022-07-18T03:56:54;16.80;99.90
23540;DHT22;11947;50.810;4.394;2022-07-18T03:59:20;16.70;99.90
23540;DHT22;11947;50.810;4.394;2022-07-18T04:01:45;16.60;99.90
23540;DHT22;11947;50.810;4.394;2022-07-18T04:04:11;16.60;99.90
23540;DHT22;11947;50.810;4.394;2022-07-18T04:06:37;16.60;99.90
23540;DHT22;11947;50.810;4.394;2022-07-18T04:09:03;16.60;99.90
23540;DHT22;11947;50.810;4.394;2022-07-18T04:11:28;16.60;99.90
23540;DHT22;11947;50.810;4.394;2022-07-18T04:13:55;16.60;99.90
23540;DHT22;11947;50.810;4.394;2022-07-18T04:16:21;16.70;99.90
23540;DHT22;11947;50.810;4.394;2022-07-18T04:18:48;16.80;99.90
23540;DHT22;11947;50.810;4.394;2022-07-18T04:21:14;16.70;99.90
23540;DHT22;11947;50.810;4.394;2022-07-18T04:23:40;16.60;99.90
23540;DHT22;11947;50.810;4.394;2022-07-18T04:26:06;16.80;99.90
23540;DHT22;11947;50.810;4.394;2022-07-18T04:28:32;16.80;99.90
23540;DHT22;11947;50.810;4.394;2022-07-18T04:30:58;16.80;99.90
23540;DHT22;11947;50.810;4.394;2022-07-18T04:33:24;16.90;99.90
23540;DHT22;11947;50.810;4.394;2022-07-18T04:35:49;17.00;99.90
23540;DHT22;11947;50.810;4.394;2022-07-18T04:38:15;16.90;99.90
23540;DHT22;11947;50.810;4.394;2022-07-18T04:40:41;17.00;99.90
23540;DHT22;11947;50.810;4.394;2022-07-18T04:43:07;17.10;99.90
23540;DHT22;11947;50.810;4.394;2022-07-18T04:45:34;17.10;99.90
23540;DHT22;11947;50.810;4.394;2022-07-18T04:48:00;17.10;99.90
23540;DHT22;11947;50.810;4.394;2022-07-18T04:50:26;17.10;99.90
23540;DHT22;11947;50.810;4.394;2022-07-18T04:52:55;17.20;99.90
23540;DHT22;11947;50.810;4.394;2022-07-18T04:55:21;17.20;99.90
23540;DHT22;11947;50.810;4.394;2022-07-18T04:57:47;17.30;99.90
23540;DHT22;11947;50.810;4.394;2022-07-18T05:00:16;17.40;99.90
23540;DHT22;11947;50.810;4.394;2022-07-18T05:02:43;17.50;99.90
23540;DHT22;11947;50.810;4.394;2022-07-18T05:05:10;17.40;99.90
23540;DHT22;11947;50.810;4.394;2022-07-18T05:07:37;17.60;99.90
23540;DHT22;11947;50.810;4.394;2022-07-18T05:10:09;17.70;99.90
23540;DHT22;11947;50.810;4.394;2022-07-18T05:12:36;17.90;99.90
23540;DHT22;11947;50.810;4.394;2022-07-18T05:15:05;18.00;99.90
23540;DHT22;11947;50.810;4.394;2022-07-18T05:17:32;18.10;99.90
23540;DHT22;11947;50.810;4.394;2022-07-18T05:19:57;18.20;99.90
23540;DHT22;11947;50.810;4.394;2022-07-18T05:22:23;18.30;99.90
23540;DHT22;11947;50.810;4.394;2022-07-18T05:24:50;18.40;99.90
23540;DHT22;11947;50.810;4.394;2022-07-18T05:27:15;18.40;99.90
23540;DHT22;11947;50.810;4.394;2022-07-18T05:29:41;18.60;99.90
23540;DHT22;11947;50.810;4.394;2022-07-18T05:32:07;18.80;99.90
23540;DHT22;11947;50.810;4.394;2022-07-18T05:34:33;18.90;99.90
23540;DHT22;11947;50.810;4.394;2022-07-18T05:36:59;19.10;99.90
23540;DHT22;11947;50.810;4.394;2022-07-18T05:39:25;19.30;99.90
23540;DHT22;11947;50.810;4.394;2022-07-18T05:41:51;19.30;99.90
23540;DHT22;11947;50.810;4.394;2022-07-18T05:44:17;19.40;99.90
23540;DHT22;11947;50.810;4.394;2022-07-18T05:46:46;19.70;99.90
23540;DHT22;11947;50.810;4.394;2022-07-18T05:49:12;19.80;99.90
23540;DHT22;11947;50.810;4.394;2022-07-18T05:51:38;20.00;99.90
23540;DHT22;11947;50.810;4.394;2022-07-18T05:54:03;20.10;99.90
23540;DHT22;11947;50.810;4.394;2022-07-18T05:56:29;20.30;99.90
23540;DHT22;11947;50.810;4.394;2022-07-18T05:58:55;20.40;99.90
23540;DHT22;11947;50.810;4.394;2022-07-18T06:01:20;20.60;99.90
23540;DHT22;11947;50.810;4.394;2022-07-18T06:03:47;20.80;99.90
23540;DHT22;11947;50.810;4.394;2022-07-18T06:06:14;20.90;99.90
23540;DHT22;11947;50.810;4.394;2022-07-18T06:08:40;21.10;99.90
23540;DHT22;11947;50.810;4.394;2022-07-18T06:11:07;21.30;99.90
23540;DHT22;11947;50.810;4.394;2022-07-18T06:13:35;21.50;99.90
23540;DHT22;11947;50.810;4.394;2022-07-18T06:16:00;21.70;99.90
23540;DHT22;11947;50.810;4.394;2022-07-18T06:18:26;22.00;99.90
23540;DHT22;11947;50.810;4.394;2022-07-18T06:20:52;22.10;99.90
23540;DHT22;11947;50.810;4.394;2022-07-18T06:23:17;22.30;99.90
23540;DHT22;11947;50.810;4.394;2022-07-18T06:25:43;22.50;99.90
23540;DHT22;11947;50.810;4.394;2022-07-18T06:28:09;22.80;99.90
23540;DHT22;11947;50.810;4.394;2022-07-18T06:30:34;23.00;99.90
23540;DHT22;11947;50.810;4.394;2022-07-18T06:33:00;23.30;99.90
23540;DHT22;11947;50.810;4.394;2022-07-18T06:35:30;23.60;99.90
23540;DHT22;11947;50.810;4.394;2022-07-18T06:37:55;23.90;99.90
23540;DHT22;11947;50.810;4.394;2022-07-18T06:40:21;24.10;99.90
23540;DHT22;11947;50.810;4.394;2022-07-18T06:42:50;24.20;99.90
23540;DHT22;11947;50.810;4.394;2022-07-18T06:45:16;24.50;99.90
23540;DHT22;11947;50.810;4.394;2022-07-18T06:47:42;24.70;98.20
23540;DHT22;11947;50.810;4.394;2022-07-18T06:50:08;25.00;99.90
23540;DHT22;11947;50.810;4.394;2022-07-18T06:52:34;25.20;99.90
23540;DHT22;11947;50.810;4.394;2022-07-18T06:55:00;25.30;97.80
23540;DHT22;11947;50.810;4.394;2022-07-18T06:57:26;25.50;95.10
23540;DHT22;11947;50.810;4.394;2022-07-18T06:59:52;25.60;95.20
23540;DHT22;11947;50.810;4.394;2022-07-18T07:02:19;25.80;96.80
23540;DHT22;11947;50.810;4.394;2022-07-18T07:04:45;25.90;95.20
23540;DHT22;11947;50.810;4.394;2022-07-18T07:07:10;26.10;93.60
23540;DHT22;11947;50.810;4.394;2022-07-18T07:09:36;26.30;93.70
23540;DHT22;11947;50.810;4.394;2022-07-18T07:12:02;26.40;93.50
23540;DHT22;11947;50.810;4.394;2022-07-18T07:14:27;26.50;93.30
23540;DHT22;11947;50.810;4.394;2022-07-18T07:16:53;26.60;93.50
23540;DHT22;11947;50.810;4.394;2022-07-18T07:19:18;26.80;93.60
23540;DHT22;11947;50.810;4.394;2022-07-18T07:21:44;27.00;93.60
23540;DHT22;11947;50.810;4.394;2022-07-18T07:24:10;27.30;95.20
23540;DHT22;11947;50.810;4.394;2022-07-18T07:26:36;27.50;93.70
23540;DHT22;11947;50.810;4.394;2022-07-18T07:29:01;27.70;93.00
23540;DHT22;11947;50.810;4.394;2022-07-18T07:31:27;27.80;92.00
23540;DHT22;11947;50.810;4.394;2022-07-18T07:33:53;27.90;91.20
23540;DHT22;11947;50.810;4.394;2022-07-18T07:36:18;28.00;92.30
23540;DHT22;11947;50.810;4.394;2022-07-18T07:38:44;28.10;92.30
23540;DHT22;11947;50.810;4.394;2022-07-18T07:41:09;28.20;92.50
23540;DHT22;11947;50.810;4.394;2022-07-18T07:43:38;28.30;91.00
23540;DHT22;11947;50.810;4.394;2022-07-18T07:46:04;28.40;91.10
23540;DHT22;11947;50.810;4.394;2022-07-18T07:48:30;28.30;90.00
23540;DHT22;11947;50.810;4.394;2022-07-18T07:50:56;28.40;85.50
23540;DHT22;11947;50.810;4.394;2022-07-18T07:53:21;28.50;89.30
23540;DHT22;11947;50.810;4.394;2022-07-18T07:55:47;28.60;88.00
23540;DHT22;11947;50.810;4.394;2022-07-18T07:58:13;28.50;88.00
23540;DHT22;11947;50.810;4.394;2022-07-18T08:00:39;28.40;87.00
23540;DHT22;11947;50.810;4.394;2022-07-18T08:03:06;28.60;87.00
23540;DHT22;11947;50.810;4.394;2022-07-18T08:05:34;28.80;87.70
23540;DHT22;11947;50.810;4.394;2022-07-18T08:08:00;28.80;85.80
23540;DHT22;11947;50.810;4.394;2022-07-18T08:10:27;29.00;84.90
23540;DHT22;11947;50.810;4.394;2022-07-18T08:12:53;29.10;85.60
23540;DHT22;11947;50.810;4.394;2022-07-18T08:15:18;29.30;88.10
23540;DHT22;11947;50.810;4.394;2022-07-18T08:17:44;29.40;86.70
23540;DHT22;11947;50.810;4.394;2022-07-18T08:20:10;29.50;83.90
23540;DHT22;11947;50.810;4.394;2022-07-18T08:25:23;29.90;83.80
23540;DHT22;11947;50.810;4.394;2022-07-18T08:27:49;30.00;84.70
23540;DHT22;11947;50.810;4.394;2022-07-18T08:30:14;30.00;83.50
23540;DHT22;11947;50.810;4.394;2022-07-18T08:32:40;30.10;81.80
23540;DHT22;11947;50.810;4.394;2022-07-18T08:35:06;30.20;79.20
23540;DHT22;11947;50.810;4.394;2022-07-18T08:37:32;30.40;84.60
23540;DHT22;11947;50.810;4.394;2022-07-18T08:39:57;30.50;79.90
23540;DHT22;11947;50.810;4.394;2022-07-18T08:42:25;30.60;84.50
23540;DHT22;11947;50.810;4.394;2022-07-18T08:44:55;30.80;80.60
23540;DHT22;11947;50.810;4.394;2022-07-18T08:47:21;30.90;76.70
23540;DHT22;11947;50.810;4.394;2022-07-18T08:49:48;31.00;80.80
23540;DHT22;11947;50.810;4.394;2022-07-18T08:52:14;31.20;83.10
23540;DHT22;11947;50.810;4.394;2022-07-18T08:54:40;31.40;75.90
23540;DHT22;11947;50.810;4.394;2022-07-18T08:57:07;31.40;78.40
23540;DHT22;11947;50.810;4.394;2022-07-18T08:59:33;31.60;76.40
23540;DHT22;11947;50.810;4.394;2022-07-18T09:01:58;31.60;76.00
23540;DHT22;11947;50.810;4.394;2022-07-18T09:04:35;31.70;75.90
23540;DHT22;11947;50.810;4.394;2022-07-18T09:07:01;31.90;76.40
23540;DHT22;11947;50.810;4.394;2022-07-18T09:09:28;31.80;72.50
23540;DHT22;11947;50.810;4.394;2022-07-18T09:12:00;32.00;75.60
23540;DHT22;11947;50.810;4.394;2022-07-18T09:19:27;32.50;74.40
23540;DHT22;11947;50.810;4.394;2022-07-18T09:21:53;32.70;70.60
23540;DHT22;11947;50.810;4.394;2022-07-18T09:24:18;32.80;71.80
23540;DHT22;11947;50.810;4.394;2022-07-18T09:26:44;33.00;71.90
23540;DHT22;11947;50.810;4.394;2022-07-18T09:29:16;33.30;68.10
23540;DHT22;11947;50.810;4.394;2022-07-18T09:31:49;33.40;69.70
23540;DHT22;11947;50.810;4.394;2022-07-18T09:34:35;33.10;65.40
23540;DHT22;11947;50.810;4.394;2022-07-18T09:37:01;33.00;66.80
23540;DHT22;11947;50.810;4.394;2022-07-18T09:39:27;33.10;71.20
23540;DHT22;11947;50.810;4.394;2022-07-18T09:41:53;33.50;70.30
23540;DHT22;11947;50.810;4.394;2022-07-18T09:44:19;33.70;68.50
23540;DHT22;11947;50.810;4.394;2022-07-18T09:46:59;34.00;65.40
23540;DHT22;11947;50.810;4.394;2022-07-18T09:49:32;34.20;63.60
23540;DHT22;11947;50.810;4.394;2022-07-18T09:52:06;34.60;66.60
23540;DHT22;11947;50.810;4.394;2022-07-18T09:54:39;35.00;62.20
23540;DHT22;11947;50.810;4.394;2022-07-18T09:57:05;35.40;63.20
23540;DHT22;11947;50.810;4.394;2022-07-18T09:59:32;35.90;60.50
23540;DHT22;11947;50.810;4.394;2022-07-18T10:01:59;36.20;59.20
23540;DHT22;11947;50.810;4.394;2022-07-18T10:04:25;36.60;61.60
23540;DHT22;11947;50.810;4.394;2022-07-18T10:06:50;36.80;57.90
23540;DHT22;11947;50.810;4.394;2022-07-18T10:09:16;37.60;58.90
23540;DHT22;11947;50.810;4.394;2022-07-18T10:11:42;38.10;55.40
23540;DHT22;11947;50.810;4.394;2022-07-18T10:14:08;38.70;56.80
23540;DHT22;11947;50.810;4.394;2022-07-18T10:16:35;39.00;56.00
23540;DHT22;11947;50.810;4.394;2022-07-18T10:19:01;39.60;55.50
23540;DHT22;11947;50.810;4.394;2022-07-18T10:21:28;39.90;52.30
23540;DHT22;11947;50.810;4.394;2022-07-18T10:23:55;40.80;51.10
23540;DHT22;11947;50.810;4.394;2022-07-18T10:26:23;41.70;49.60
23540;DHT22;11947;50.810;4.394;2022-07-18T10:31:20;43.30;48.90
23540;DHT22;11947;50.810;4.394;2022-07-18T10:33:47;44.40;48.00
23540;DHT22;11947;50.810;4.394;2022-07-18T10:36:18;44.50;45.10
23540;DHT22;11947;50.810;4.394;2022-07-18T10:41:28;46.60;44.70
23540;DHT22;11947;50.810;4.394;2022-07-18T10:43:54;47.90;46.00
23540;DHT22;11947;50.810;4.394;2022-07-18T10:46:20;49.10;43.50
23540;DHT22;11947;50.810;4.394;2022-07-18T10:48:54;49.10;39.60
23540;DHT22;11947;50.810;4.394;2022-07-18T10:51:27;49.50;39.70
23540;DHT22;11947;50.810;4.394;2022-07-18T10:59:20;50.40;36.90
23540;DHT22;11947;50.810;4.394;2022-07-18T11:01:51;50.90;37.20
23540;DHT22;11947;50.810;4.394;2022-07-18T11:04:37;51.90;36.10
23540;DHT22;11947;50.810;4.394;2022-07-18T11:09:39;53.30;35.90
23540;DHT22;11947;50.810;4.394;2022-07-18T11:12:29;54.20;34.50
23540;DHT22;11947;50.810;4.394;2022-07-18T11:15:11;54.30;33.90
23540;DHT22;11947;50.810;4.394;2022-07-18T11:17:58;54.80;35.60
23540;DHT22;11947;50.810;4.394;2022-07-18T11:22:59;55.80;34.10
23540;DHT22;11947;50.810;4.394;2022-07-18T11:25:28;55.30;32.00
23540;DHT22;11947;50.810;4.394;2022-07-18T11:27:55;55.80;32.50
23540;DHT22;11947;50.810;4.394;2022-07-18T11:30:22;56.10;32.20
23540;DHT22;11947;50.810;4.394;2022-07-18T11:32:49;56.80;32.50
23540;DHT22;11947;50.810;4.394;2022-07-18T11:35:15;56.90;29.40
23540;DHT22;11947;50.810;4.394;2022-07-18T11:37:47;56.40;29.80
23540;DHT22;11947;50.810;4.394;2022-07-18T11:40:14;56.30;30.20
23540;DHT22;11947;50.810;4.394;2022-07-18T11:42:41;56.00;30.90
23540;DHT22;11947;50.810;4.394;2022-07-18T11:45:09;56.60;31.80
23540;DHT22;11947;50.810;4.394;2022-07-18T11:47:52;56.80;31.00
23540;DHT22;11947;50.810;4.394;2022-07-18T11:50:26;57.50;31.20
23540;DHT22;11947;50.810;4.394;2022-07-18T11:52:59;56.80;29.50
23540;DHT22;11947;50.810;4.394;2022-07-18T11:55:33;55.90;29.30
23540;DHT22;11947;50.810;4.394;2022-07-18T11:58:08;57.10;30.00
23540;DHT22;11947;50.810;4.394;2022-07-18T12:00:34;57.70;30.80
23540;DHT22;11947;50.810;4.394;2022-07-18T12:03:20;58.50;29.10
23540;DHT22;11947;50.810;4.394;2022-07-18T12:05:48;58.90;30.00
23540;DHT22;11947;50.810;4.394;2022-07-18T12:19:04;58.90;28.60
23540;DHT22;11947;50.810;4.394;2022-07-18T12:30:10;59.10;28.40
23540;DHT22;11947;50.810;4.394;2022-07-18T12:45:53;58.10;29.40
23540;DHT22;11947;50.810;4.394;2022-07-18T12:48:20;58.60;27.70
23540;DHT22;11947;50.810;4.394;2022-07-18T12:50:45;58.00;28.90
23540;DHT22;11947;50.810;4.394;2022-07-18T12:53:12;57.70;28.00
23540;DHT22;11947;50.810;4.394;2022-07-18T12:55:38;58.20;30.50
23540;DHT22;11947;50.810;4.394;2022-07-18T12:58:05;58.50;29.60
23540;DHT22;11947;50.810;4.394;2022-07-18T13:00:31;57.90;31.10
23540;DHT22;11947;50.810;4.394;2022-07-18T13:03:00;57.90;29.80
23540;DHT22;11947;50.810;4.394;2022-07-18T13:05:28;58.20;30.90
23540;DHT22;11947;50.810;4.394;2022-07-18T13:07:54;58.30;27.70
23540;DHT22;11947;50.810;4.394;2022-07-18T13:10:19;57.80;28.60
23540;DHT22;11947;50.810;4.394;2022-07-18T13:12:45;56.80;27.20
23540;DHT22;11947;50.810;4.394;2022-07-18T13:15:11;55.90;28.70
23540;DHT22;11947;50.810;4.394;2022-07-18T13:17:37;54.90;28.70
23540;DHT22;11947;50.810;4.394;2022-07-18T13:20:03;54.70;29.20
23540;DHT22;11947;50.810;4.394;2022-07-18T13:22:29;54.80;29.20
23540;DHT22;11947;50.810;4.394;2022-07-18T13:24:56;54.70;28.50
23540;DHT22;11947;50.810;4.394;2022-07-18T13:27:22;54.60;29.60
23540;DHT22;11947;50.810;4.394;2022-07-18T13:29:48;54.40;29.30
23540;DHT22;11947;50.810;4.394;2022-07-18T13:32:14;54.90;29.70
23540;DHT22;11947;50.810;4.394;2022-07-18T13:34:40;55.50;29.00
23540;DHT22;11947;50.810;4.394;2022-07-18T13:37:05;55.80;29.40
23540;DHT22;11947;50.810;4.394;2022-07-18T13:39:31;55.80;28.60
23540;DHT22;11947;50.810;4.394;2022-07-18T13:41:57;55.80;29.30
23540;DHT22;11947;50.810;4.394;2022-07-18T13:44:22;55.70;30.00
23540;DHT22;11947;50.810;4.394;2022-07-18T13:46:48;56.20;30.20
23540;DHT22;11947;50.810;4.394;2022-07-18T13:49:13;56.60;30.00
23540;DHT22;11947;50.810;4.394;2022-07-18T13:51:42;56.60;28.70
23540;DHT22;11947;50.810;4.394;2022-07-18T13:54:07;55.80;27.60
23540;DHT22;11947;50.810;4.394;2022-07-18T13:56:33;55.70;29.20
23540;DHT22;11947;50.810;4.394;2022-07-18T13:58:59;56.00;29.40
23540;DHT22;11947;50.810;4.394;2022-07-18T14:01:25;56.20;30.00
23540;DHT22;11947;50.810;4.394;2022-07-18T14:03:50;56.10;28.60
23540;DHT22;11947;50.810;4.394;2022-07-18T14:06:16;56.20;28.70
23540;DHT22;11947;50.810;4.394;2022-07-18T14:08:42;55.80;29.10
23540;DHT22;11947;50.810;4.394;2022-07-18T14:11:07;55.60;29.50
23540;DHT22;11947;50.810;4.394;2022-07-18T14:13:33;55.60;28.00
23540;DHT22;11947;50.810;4.394;2022-07-18T14:15:59;55.80;29.20
23540;DHT22;11947;50.810;4.394;2022-07-18T14:18:24;55.40;29.50
23540;DHT22;11947;50.810;4.394;2022-07-18T14:20:50;55.40;29.80
23540;DHT22;11947;50.810;4.394;2022-07-18T14:23:16;53.60;30.30
23540;DHT22;11947;50.810;4.394;2022-07-18T14:25:41;50.70;30.80
23540;DHT22;11947;50.810;4.394;2022-07-18T14:28:07;48.60;33.50
23540;DHT22;11947;50.810;4.394;2022-07-18T14:30:33;46.90;34.70
23540;DHT22;11947;50.810;4.394;2022-07-18T14:32:59;45.90;35.50
23540;DHT22;11947;50.810;4.394;2022-07-18T14:35:24;44.80;36.70
23540;DHT22;11947;50.810;4.394;2022-07-18T14:37:50;43.70;35.40
23540;DHT22;11947;50.810;4.394;2022-07-18T14:40:16;42.50;37.80
23540;DHT22;11947;50.810;4.394;2022-07-18T14:42:42;41.80;40.60
23540;DHT22;11947;50.810;4.394;2022-07-18T14:45:08;41.50;38.10
23540;DHT22;11947;50.810;4.394;2022-07-18T14:47:34;40.70;38.10
23540;DHT22;11947;50.810;4.394;2022-07-18T14:50:02;40.00;39.60
23540;DHT22;11947;50.810;4.394;2022-07-18T14:52:28;39.50;38.20
23540;DHT22;11947;50.810;4.394;2022-07-18T14:54:53;38.80;39.00
23540;DHT22;11947;50.810;4.394;2022-07-18T14:57:19;38.70;41.60
23540;DHT22;11947;50.810;4.394;2022-07-18T14:59:45;38.20;40.80
23540;DHT22;11947;50.810;4.394;2022-07-18T15:02:10;38.00;41.60
23540;DHT22;11947;50.810;4.394;2022-07-18T15:04:38;37.90;42.50
23540;DHT22;11947;50.810;4.394;2022-07-18T15:07:04;37.60;43.10
23540;DHT22;11947;50.810;4.394;2022-07-18T15:09:30;37.30;42.70
23540;DHT22;11947;50.810;4.394;2022-07-18T15:11:55;37.30;43.20
23540;DHT22;11947;50.810;4.394;2022-07-18T15:14:21;37.10;44.40
23540;DHT22;11947;50.810;4.394;2022-07-18T15:16:47;37.00;43.80
23540;DHT22;11947;50.810;4.394;2022-07-18T15:19:12;36.80;45.20
23540;DHT22;11947;50.810;4.394;2022-07-18T15:21:38;36.60;42.40
23540;DHT22;11947;50.810;4.394;2022-07-18T15:24:04;36.20;43.00
23540;DHT22;11947;50.810;4.394;2022-07-18T15:26:29;36.00;43.40
23540;DHT22;11947;50.810;4.394;2022-07-18T15:28:55;36.10;44.40
23540;DHT22;11947;50.810;4.394;2022-07-18T15:31:21;35.90;42.40
23540;DHT22;11947;50.810;4.394;2022-07-18T15:33:46;35.50;42.50
23540;DHT22;11947;50.810;4.394;2022-07-18T15:36:12;35.10;43.90
23540;DHT22;11947;50.810;4.394;2022-07-18T15:38:38;35.00;43.40
23540;DHT22;11947;50.810;4.394;2022-07-18T15:41:08;34.80;44.00
23540;DHT22;11947;50.810;4.394;2022-07-18T15:43:34;34.70;44.40
23540;DHT22;11947;50.810;4.394;2022-07-18T15:46:00;34.50;43.80
23540;DHT22;11947;50.810;4.394;2022-07-18T15:48:26;34.50;44.50
23540;DHT22;11947;50.810;4.394;2022-07-18T15:50:52;34.50;45.70
23540;DHT22;11947;50.810;4.394;2022-07-18T15:53:18;34.60;48.30
23540;DHT22;11947;50.810;4.394;2022-07-18T15:55:43;34.60;47.20
23540;DHT22;11947;50.810;4.394;2022-07-18T15:58:09;34.70;46.70
23540;DHT22;11947;50.810;4.394;2022-07-18T16:00:34;34.60;45.40
23540;DHT22;11947;50.810;4.394;2022-07-18T16:03:00;34.30;44.90
23540;DHT22;11947;50.810;4.394;2022-07-18T16:05:26;34.30;44.20
23540;DHT22;11947;50.810;4.394;2022-07-18T16:07:51;34.20;44.30
23540;DHT22;11947;50.810;4.394;2022-07-18T16:10:17;34.10;45.50
23540;DHT22;11947;50.810;4.394;2022-07-18T16:12:42;34.00;45.10
23540;DHT22;11947;50.810;4.394;2022-07-18T16:15:09;34.00;45.60
23540;DHT22;11947;50.810;4.394;2022-07-18T16:17:35;33.80;45.50
23540;DHT22;11947;50.810;4.394;2022-07-18T16:20:00;33.90;45.80
23540;DHT22;11947;50.810;4.394;2022-07-18T16:22:26;34.00;44.60